createdAt,value
2023-10-27T00:00:10.959Z,49.85
2023-10-27T00:02:39.893Z,50.25
2023-10-27T00:05:09.024Z,50.47
2023-10-27T00:07:37.217Z,50.38
2023-10-27T00:10:06.349Z,50.60
2023-10-27T00:12:35.969Z,50.80
2023-10-27T00:15:04.423Z,50.83
2023-10-27T00:17:32.570Z,51.28
2023-10-27T00:20:00.898Z,51.63
2023-10-27T00:22:30.387Z,50.95
2023-10-27T00:24:58.617Z,52.78
2023-10-27T00:27:26.812Z,50.65
2023-10-27T00:29:56.605Z,49.55
2023-10-27T00:32:24.702Z,50.38
2023-10-27T00:34:53.058Z,48.20
2023-10-27T00:37:21.200Z,50.20
2023-10-27T00:39:49.487Z,47.65
2023-10-27T00:42:17.618Z,48.85
2023-10-27T00:44:45.885Z,49.92
2023-10-27T00:47:15.427Z,49.42
2023-10-27T00:49:45.383Z,51.20
2023-10-27T00:52:14.759Z,48.55
2023-10-27T00:54:43.689Z,47.28
2023-10-27T00:57:12.276Z,49.78
2023-10-27T00:59:40.435Z,49.55
2023-10-27T01:02:08.605Z,45.58
2023-10-27T01:04:38.390Z,46.90
2023-10-27T01:07:06.805Z,48.92
2023-10-27T01:09:35.187Z,46.85
2023-10-27T01:12:03.938Z,46.97
2023-10-27T01:14:34.823Z,48.88
2023-10-27T01:17:02.954Z,47.88
2023-10-27T01:19:31.215Z,47.08
2023-10-27T01:22:01.123Z,49.03
2023-10-27T01:24:32.037Z,47.70
2023-10-27T01:27:01.945Z,46.90
2023-10-27T01:29:30.673Z,46.33
2023-10-27T01:31:58.772Z,46.20
2023-10-27T01:34:26.951Z,46.83
2023-10-27T01:36:55.087Z,46.42
2023-10-27T01:39:23.260Z,45.90
2023-10-27T01:41:52.984Z,46.47
2023-10-27T01:44:21.097Z,45.03
2023-10-27T01:46:49.284Z,45.83
2023-10-27T01:49:17.502Z,44.75
2023-10-27T01:51:45.664Z,44.00
2023-10-27T01:54:13.781Z,44.75
2023-10-27T01:56:41.933Z,45.13
2023-10-27T01:59:11.615Z,44.03
2023-10-27T02:01:40.234Z,45.20
2023-10-27T02:04:08.789Z,45.20
2023-10-27T02:06:37.495Z,44.88
2023-10-27T02:09:05.672Z,44.25
2023-10-27T02:11:34.085Z,43.88
2023-10-27T02:14:02.379Z,44.58
2023-10-27T02:16:31.932Z,45.60
2023-10-27T02:19:00.188Z,44.42
2023-10-27T02:21:28.370Z,44.90
2023-10-27T02:23:56.465Z,44.30
2023-10-27T02:26:24.530Z,44.22
2023-10-27T02:28:52.856Z,43.88
2023-10-27T02:31:21.005Z,43.60
2023-10-27T02:33:51.333Z,42.05
2023-10-27T02:36:19.349Z,43.63
2023-10-27T02:38:47.495Z,43.10
2023-10-27T02:41:15.595Z,43.13
2023-10-27T02:43:44.017Z,43.90
2023-10-27T02:46:13.595Z,42.55
2023-10-27T02:48:43.525Z,42.83
2023-10-27T02:51:14.331Z,43.88
2023-10-27T02:53:42.543Z,43.05
2023-10-27T02:56:11.670Z,42.38
2023-10-27T02:58:39.883Z,40.88
2023-10-27T03:01:15.814Z,42.60
2023-10-27T03:03:44.214Z,40.40
2023-10-27T03:06:14.881Z,39.45
2023-10-27T03:08:45.093Z,41.03
2023-10-27T03:11:13.336Z,39.83
2023-10-27T03:13:41.827Z,39.33
2023-10-27T03:16:10.096Z,40.05
2023-10-27T03:18:38.256Z,39.78
2023-10-27T03:21:06.823Z,39.10
2023-10-27T03:23:36.466Z,39.25
2023-10-27T03:26:04.968Z,41.58
2023-10-27T03:28:33.646Z,41.50
2023-10-27T03:31:02.069Z,39.53
2023-10-27T03:33:30.514Z,38.80
2023-10-27T03:35:58.613Z,37.95
2023-10-27T03:38:27.188Z,38.05
2023-10-27T03:40:56.945Z,37.92
2023-10-27T03:43:25.224Z,39.22
2023-10-27T03:45:53.357Z,38.25
2023-10-27T03:48:21.518Z,37.58
2023-10-27T03:50:49.756Z,38.30
2023-10-27T03:53:19.096Z,37.35
2023-10-27T03:55:53.757Z,37.70
2023-10-27T03:58:30.264Z,36.13
2023-10-27T04:01:01.445Z,37.70
2023-10-27T04:03:32.429Z,35.78
2023-10-27T04:06:00.903Z,37.08
2023-10-27T04:08:29.037Z,38.40
2023-10-27T04:11:00.152Z,38.40
2023-10-27T04:13:29.684Z,38.50
2023-10-27T04:15:58.021Z,36.70
2023-10-27T04:18:26.260Z,37.53
2023-10-27T04:20:54.405Z,36.42
2023-10-27T04:23:22.524Z,37.88
2023-10-27T04:25:52.583Z,37.70
2023-10-27T04:28:23.107Z,37.03
2023-10-27T04:30:54.286Z,37.28
2023-10-27T04:33:23.865Z,37.95
2023-10-27T04:35:52.029Z,37.55
2023-10-27T04:38:20.175Z,38.30
2023-10-27T04:40:50.079Z,37.60
2023-10-27T04:43:18.272Z,37.92
2023-10-27T04:45:47.434Z,39.45
2023-10-27T04:48:17.229Z,37.17
2023-10-27T04:50:45.426Z,36.38
2023-10-27T04:53:13.509Z,37.45
2023-10-27T04:55:41.628Z,39.08
2023-10-27T04:58:09.809Z,37.78
2023-10-27T05:00:38.608Z,39.05
2023-10-27T05:03:07.094Z,37.90
2023-10-27T05:05:36.779Z,37.42
2023-10-27T05:08:08.005Z,37.38
2023-10-27T05:10:37.272Z,37.10
2023-10-27T05:13:10.178Z,37.47
2023-10-27T05:15:39.735Z,40.28
2023-10-27T05:18:08.640Z,39.05
2023-10-27T05:20:41.060Z,38.58
2023-10-27T05:23:09.457Z,38.72
2023-10-27T05:25:37.624Z,37.90
2023-10-27T05:28:07.290Z,36.35
2023-10-27T05:30:38.943Z,39.40
2023-10-27T05:33:10.124Z,39.17
2023-10-27T05:35:38.382Z,37.90
2023-10-27T05:38:07.897Z,37.83
2023-10-27T05:40:36.207Z,37.88
2023-10-27T05:43:04.551Z,38.88
2023-10-27T05:45:32.767Z,37.60
2023-10-27T05:48:01.023Z,38.05
2023-10-27T05:50:32.392Z,37.00
2023-10-27T05:53:01.280Z,36.80
2023-10-27T05:55:30.880Z,37.33
2023-10-27T05:57:59.035Z,38.90
2023-10-27T06:00:27.495Z,38.55
2023-10-27T06:02:56.850Z,38.10
2023-10-27T06:05:25.881Z,38.15
2023-10-27T06:07:54.069Z,39.78
2023-10-27T06:10:22.418Z,37.45
2023-10-27T06:12:51.943Z,37.30
2023-10-27T06:15:20.018Z,37.70
2023-10-27T06:17:50.086Z,36.75
2023-10-27T06:20:19.391Z,38.60
2023-10-27T06:22:48.057Z,37.13
2023-10-27T06:25:16.269Z,38.47
2023-10-27T06:27:44.471Z,37.88
2023-10-27T06:30:14.798Z,37.25
2023-10-27T06:32:43.218Z,37.80
2023-10-27T06:35:11.397Z,37.13
2023-10-27T06:37:39.592Z,39.10
2023-10-27T06:40:12.325Z,38.33
2023-10-27T06:42:41.788Z,40.00
2023-10-27T06:45:11.043Z,38.08
2023-10-27T06:47:41.519Z,38.50
2023-10-27T06:50:10.070Z,38.25
2023-10-27T06:52:38.658Z,38.30
2023-10-27T06:55:07.705Z,37.83
2023-10-27T06:57:35.768Z,37.13
2023-10-27T07:00:05.509Z,36.50
2023-10-27T07:02:42.104Z,38.22
2023-10-27T07:05:18.359Z,36.28
2023-10-27T07:07:46.534Z,36.15
2023-10-27T07:10:14.791Z,36.80
2023-10-27T07:12:44.654Z,37.08
2023-10-27T07:15:13.929Z,37.85
2023-10-27T07:17:42.185Z,35.95
2023-10-27T07:20:11.334Z,36.80
2023-10-27T07:22:40.901Z,36.13
2023-10-27T07:25:11.878Z,36.28
2023-10-27T07:27:40.113Z,37.25
2023-10-27T07:30:09.777Z,35.90
2023-10-27T07:32:38.023Z,37.22
2023-10-27T07:35:06.971Z,36.67
2023-10-27T07:37:40.533Z,36.10
2023-10-27T07:40:09.797Z,36.22
2023-10-27T07:42:45.140Z,36.92
2023-10-27T07:45:19.379Z,35.30
2023-10-27T07:47:53.878Z,35.38
2023-10-27T07:50:58.830Z,37.55
2023-10-27T07:53:29.540Z,35.85
2023-10-27T07:56:11.119Z,35.58
2023-10-27T07:59:11.503Z,34.95
2023-10-27T08:02:19.437Z,35.40
2023-10-27T08:05:12.882Z,35.25
2023-10-27T08:07:41.314Z,35.60
2023-10-27T08:22:33.136Z,35.47
2023-10-27T08:41:57.866Z,35.75
2023-10-27T08:54:17.876Z,35.97
2023-10-27T08:57:31.781Z,35.28
2023-10-27T09:00:08.156Z,35.60
2023-10-27T09:03:28.711Z,35.28
2023-10-27T09:06:15.937Z,35.35
2023-10-27T09:08:58.156Z,35.47
2023-10-27T09:12:16.967Z,36.75
2023-10-27T09:14:44.874Z,35.63
2023-10-27T09:17:33.387Z,36.13
2023-10-27T09:20:27.925Z,35.03
2023-10-27T09:23:13.593Z,36.58
2023-10-27T09:25:59.506Z,35.53
2023-10-27T09:28:30.998Z,36.25
2023-10-27T09:31:23.034Z,35.85
2023-10-27T09:33:55.611Z,35.60
2023-10-27T09:36:27.212Z,35.90
2023-10-27T09:39:06.007Z,35.92
2023-10-27T09:41:52.331Z,36.90
2023-10-27T09:44:27.031Z,36.05
2023-10-27T09:47:05.308Z,36.15
2023-10-27T09:49:35.803Z,34.47
2023-10-27T09:52:08.961Z,34.92
2023-10-27T09:54:37.139Z,33.78
2023-10-27T09:57:06.597Z,34.83
2023-10-27T09:59:36.406Z,34.45
2023-10-27T10:02:07.653Z,34.88
2023-10-27T10:05:04.554Z,34.90
2023-10-27T10:07:33.655Z,34.58
2023-10-27T10:10:18.969Z,34.75
2023-10-27T10:13:06.781Z,35.78
2023-10-27T10:15:37.164Z,34.13
2023-10-27T10:18:08.528Z,34.00
2023-10-27T10:20:58.622Z,35.13
2023-10-27T10:23:42.855Z,36.50
2023-10-27T10:26:11.072Z,36.05
2023-10-27T10:28:40.525Z,36.05
2023-10-27T10:31:35.443Z,35.72
2023-10-27T10:34:14.143Z,35.45
2023-10-27T10:36:42.936Z,36.40
2023-10-27T10:39:13.119Z,35.95
2023-10-27T10:42:03.594Z,35.50
2023-10-27T10:44:33.128Z,35.45
2023-10-27T10:47:05.256Z,36.25
2023-10-27T10:49:37.670Z,37.17
2023-10-27T10:52:06.918Z,37.28
2023-10-27T10:54:36.711Z,35.65
2023-10-27T10:57:09.100Z,36.88
2023-10-27T10:59:38.570Z,34.80
2023-10-27T11:02:06.951Z,35.78
2023-10-27T11:07:08.077Z,33.63
2023-10-27T11:09:36.178Z,32.67
2023-10-27T11:12:05.473Z,32.95
2023-10-27T11:14:43.676Z,33.58
2023-10-27T11:17:13.564Z,32.58
2023-10-27T11:19:56.356Z,33.28
2023-10-27T11:22:25.861Z,32.25
2023-10-27T11:24:54.157Z,33.58
2023-10-27T11:27:26.608Z,32.90
2023-10-27T11:30:07.151Z,33.33
2023-10-27T11:32:35.367Z,33.63
2023-10-27T11:35:04.950Z,34.47
2023-10-27T11:37:33.632Z,34.35
2023-10-27T11:40:14.969Z,34.70
2023-10-27T11:42:43.148Z,35.30
2023-10-27T11:45:12.142Z,35.58
2023-10-27T11:47:40.337Z,35.47
2023-10-27T11:50:10.991Z,35.50
2023-10-27T11:52:39.251Z,37.22
2023-10-27T11:55:08.053Z,37.92
2023-10-27T11:57:37.348Z,37.10
2023-10-27T12:00:06.486Z,37.67
2023-10-27T12:02:34.449Z,38.25
2023-10-27T12:05:04.684Z,38.03
2023-10-27T12:07:35.176Z,38.85
2023-10-27T12:10:03.900Z,38.63
2023-10-27T12:12:32.028Z,37.97
2023-10-27T12:15:00.106Z,37.63
2023-10-27T12:17:28.473Z,37.28
2023-10-27T12:19:56.777Z,39.58
2023-10-27T12:22:24.919Z,39.00
2023-10-27T12:24:54.965Z,39.15
2023-10-27T12:27:25.065Z,39.70
2023-10-27T12:29:54.030Z,39.75
2023-10-27T12:32:22.170Z,40.58
2023-10-27T12:34:51.820Z,41.55
2023-10-27T12:37:20.837Z,41.40
2023-10-27T12:39:50.080Z,41.33
2023-10-27T12:42:21.095Z,40.00
2023-10-27T12:44:49.536Z,37.88
2023-10-27T12:47:17.900Z,37.35
2023-10-27T12:49:50.520Z,36.95
2023-10-27T12:52:18.936Z,36.00
2023-10-27T12:54:47.477Z,35.67
2023-10-27T12:57:15.904Z,35.75
2023-10-27T12:59:47.541Z,35.05
2023-10-27T13:02:15.777Z,33.83
2023-10-27T13:04:44.380Z,35.65
2023-10-27T13:07:12.863Z,35.75
2023-10-27T13:09:42.103Z,34.75
2023-10-27T13:12:12.090Z,35.08
2023-10-27T13:14:41.286Z,34.90
2023-10-27T13:17:11.972Z,35.15
2023-10-27T13:19:40.122Z,34.35
2023-10-27T13:22:08.229Z,34.45
2023-10-27T13:24:38.494Z,34.80
2023-10-27T13:27:09.164Z,34.13
2023-10-27T13:29:37.659Z,33.60
2023-10-27T13:32:06.572Z,33.42
2023-10-27T13:34:37.601Z,33.17
2023-10-27T13:37:06.517Z,32.55
2023-10-27T13:39:35.532Z,32.35
2023-10-27T13:42:03.787Z,33.03
2023-10-27T13:44:31.799Z,32.40
2023-10-27T13:47:00.915Z,33.63
2023-10-27T13:49:28.980Z,33.30
2023-10-27T13:51:58.636Z,32.78
2023-10-27T13:54:26.792Z,32.95
2023-10-27T13:56:54.801Z,33.13
2023-10-27T13:59:23.310Z,33.40
2023-10-27T14:01:51.757Z,32.95
2023-10-27T14:04:20.099Z,33.53
2023-10-27T14:06:48.716Z,33.65
2023-10-27T14:09:18.951Z,33.83
2023-10-27T14:11:50.447Z,32.88
2023-10-27T14:14:24.174Z,34.47
2023-10-27T14:16:52.353Z,32.83
2023-10-27T14:19:20.618Z,32.58
2023-10-27T14:21:49.646Z,33.50
2023-10-27T14:24:19.325Z,33.40
2023-10-27T14:26:50.431Z,32.88
2023-10-27T14:29:18.718Z,32.83
2023-10-27T14:31:46.869Z,34.13
2023-10-27T14:34:15.130Z,33.97
2023-10-27T14:36:44.473Z,34.13
2023-10-27T14:39:15.007Z,33.22
2023-10-27T14:41:45.025Z,32.90
2023-10-27T14:44:22.295Z,34.05
2023-10-27T14:46:50.620Z,33.55
2023-10-27T14:49:19.662Z,34.20
2023-10-27T14:51:53.799Z,34.80
2023-10-27T14:54:22.049Z,34.17
2023-10-27T14:56:51.906Z,34.28
2023-10-27T14:59:22.592Z,33.92
2023-10-27T15:01:50.794Z,34.22
2023-10-27T15:04:22.045Z,34.40
2023-10-27T15:06:58.484Z,34.03
2023-10-27T15:09:35.186Z,33.88
2023-10-27T15:12:09.216Z,33.88
2023-10-27T15:14:39.083Z,33.92
2023-10-27T15:17:07.750Z,35.13
2023-10-27T15:19:39.228Z,33.78
2023-10-27T15:22:09.316Z,35.35
2023-10-27T15:24:37.438Z,35.15
2023-10-27T15:27:11.166Z,35.65
2023-10-27T15:29:39.366Z,33.95
2023-10-27T15:32:08.472Z,34.20
2023-10-27T15:34:40.419Z,34.63
2023-10-27T15:37:09.317Z,34.55
2023-10-27T15:39:38.389Z,33.88
2023-10-27T15:42:10.794Z,34.03
2023-10-27T15:44:42.345Z,34.75
2023-10-27T15:47:11.131Z,33.00
2023-10-27T15:49:39.552Z,32.85
2023-10-27T15:52:08.260Z,34.40
2023-10-27T15:54:36.518Z,34.03
2023-10-27T15:57:08.016Z,33.80
2023-10-27T15:59:37.864Z,35.40
2023-10-27T16:02:07.686Z,35.67
2023-10-27T16:04:36.247Z,35.13
2023-10-27T16:07:04.786Z,35.88
2023-10-27T16:09:40.381Z,33.22
2023-10-27T16:12:09.992Z,33.42
2023-10-27T16:14:40.065Z,33.17
2023-10-27T16:17:09.593Z,34.13
2023-10-27T16:19:38.613Z,33.90
2023-10-27T16:22:09.136Z,34.63
2023-10-27T16:24:40.397Z,35.42
2023-10-27T16:27:09.434Z,35.92
2023-10-27T16:29:39.392Z,35.67
2023-10-27T16:32:08.133Z,34.08
2023-10-27T16:34:36.471Z,34.60
2023-10-27T16:37:04.948Z,33.72
2023-10-27T16:39:36.620Z,32.70
2023-10-27T16:42:08.481Z,33.22
2023-10-27T16:44:41.178Z,33.42
2023-10-27T16:47:12.616Z,32.53
2023-10-27T16:49:46.424Z,32.22
2023-10-27T16:52:18.632Z,32.05
2023-10-27T16:54:51.605Z,32.10
2023-10-27T16:57:20.370Z,33.03
2023-10-27T17:00:27.831Z,33.10
2023-10-27T17:03:13.728Z,32.70
2023-10-27T17:09:32.811Z,33.17
2023-10-27T17:12:11.589Z,33.60
2023-10-27T17:15:12.742Z,33.55
2023-10-27T17:18:42.290Z,33.58
2023-10-27T17:21:28.174Z,33.55
2023-10-27T17:24:05.537Z,33.70
2023-10-27T17:26:43.956Z,33.70
2023-10-27T17:29:17.631Z,34.15
2023-10-27T17:32:00.259Z,33.08
2023-10-27T17:34:46.603Z,34.53
2023-10-27T17:37:21.749Z,34.17
2023-10-27T17:39:52.241Z,33.30
2023-10-27T17:42:23.841Z,34.20
2023-10-27T17:44:52.348Z,33.58
2023-10-27T17:47:23.033Z,33.20
2023-10-27T17:49:54.143Z,32.90
2023-10-27T17:52:23.642Z,32.50
2023-10-27T17:54:54.802Z,33.35
2023-10-27T17:57:23.173Z,33.50
2023-10-27T17:59:51.502Z,32.13
2023-10-27T18:02:21.152Z,32.53
2023-10-27T18:04:53.783Z,32.35
2023-10-27T18:07:25.678Z,32.08
2023-10-27T18:09:56.632Z,32.15
2023-10-27T18:12:27.580Z,32.80
2023-10-27T18:15:58.888Z,32.10
2023-10-27T18:18:33.082Z,32.50
2023-10-27T18:21:07.988Z,31.88
2023-10-27T18:23:36.909Z,32.10
2023-10-27T18:26:12.755Z,31.30
2023-10-27T18:28:41.298Z,32.00
2023-10-27T18:31:09.892Z,31.60
2023-10-27T18:33:39.546Z,32.22
2023-10-27T18:36:14.832Z,32.30
2023-10-27T18:38:43.548Z,31.73
2023-10-27T18:41:11.843Z,32.17
2023-10-27T18:43:41.371Z,31.60
2023-10-27T18:46:10.422Z,31.80
2023-10-27T18:48:38.782Z,33.55
2023-10-27T18:51:08.674Z,33.00
2023-10-27T18:53:48.936Z,33.65
2023-10-27T18:56:18.078Z,32.80
2023-10-27T18:58:47.770Z,33.15
2023-10-27T19:01:17.701Z,33.50
2023-10-27T19:03:48.547Z,34.17
2023-10-27T19:06:17.827Z,33.70
2023-10-27T19:08:47.778Z,33.97
2023-10-27T19:11:18.817Z,32.90
2023-10-27T19:13:48.310Z,34.83
2023-10-27T19:16:17.234Z,35.03
2023-10-27T19:18:48.150Z,34.55
2023-10-27T19:21:18.616Z,34.53
2023-10-27T19:23:52.155Z,35.33
2023-10-27T19:26:21.305Z,36.25
2023-10-27T19:28:51.283Z,37.10
2023-10-27T19:31:21.539Z,38.28
2023-10-27T19:33:52.782Z,37.85
2023-10-27T19:36:22.743Z,37.47
2023-10-27T19:38:53.205Z,36.20
2023-10-27T19:41:22.062Z,35.90
2023-10-27T19:43:51.661Z,35.55
2023-10-27T19:46:21.216Z,35.60
2023-10-27T19:48:49.848Z,34.88
2023-10-27T19:51:21.193Z,34.65
2023-10-27T19:53:49.912Z,34.55
2023-10-27T19:56:19.530Z,33.92
2023-10-27T19:58:47.922Z,34.17
2023-10-27T20:01:18.490Z,33.03
2023-10-27T20:03:49.147Z,34.15
2023-10-27T20:06:18.083Z,33.50
2023-10-27T20:08:46.526Z,32.83
2023-10-27T20:11:17.350Z,32.88
2023-10-27T20:13:49.080Z,33.50
2023-10-27T20:16:18.839Z,33.13
2023-10-27T20:18:48.719Z,33.40
2023-10-27T20:21:17.101Z,33.72
2023-10-27T20:23:47.235Z,33.20
2023-10-27T20:26:15.915Z,33.55
2023-10-27T20:28:47.729Z,33.97
2023-10-27T20:31:16.104Z,33.88
2023-10-27T20:33:44.373Z,33.90
2023-10-27T20:36:13.191Z,33.60
2023-10-27T20:38:41.386Z,34.05
2023-10-27T20:41:09.932Z,33.20
2023-10-27T20:43:38.850Z,33.20
2023-10-27T20:46:11.925Z,33.35
2023-10-27T20:48:41.003Z,33.75
2023-10-27T20:51:10.398Z,34.53
2023-10-27T20:53:38.717Z,33.72
2023-10-27T20:56:08.745Z,33.47
2023-10-27T20:58:37.151Z,33.72
2023-10-27T21:01:10.579Z,34.30
2023-10-27T21:03:39.945Z,34.92
2023-10-27T21:06:09.155Z,34.88
2023-10-27T21:08:38.202Z,34.70
2023-10-27T21:11:06.751Z,34.50
2023-10-27T21:13:35.002Z,34.75
2023-10-27T21:16:06.543Z,34.20
2023-10-27T21:18:36.198Z,34.92
2023-10-27T21:21:04.535Z,35.78
2023-10-27T21:23:32.937Z,35.33
2023-10-27T21:26:04.310Z,36.45
2023-10-27T21:28:32.946Z,35.50
2023-10-27T21:31:01.139Z,34.42
2023-10-27T21:33:29.488Z,36.20
2023-10-27T21:35:59.040Z,36.47
2023-10-27T21:38:27.281Z,35.42
2023-10-27T21:40:55.646Z,36.50
2023-10-27T21:43:24.082Z,35.55
2023-10-27T21:45:52.280Z,36.38
2023-10-27T21:48:21.505Z,36.28
2023-10-27T21:50:49.717Z,36.45
2023-10-27T21:53:19.448Z,36.38
2023-10-27T21:55:47.592Z,35.72
2023-10-27T21:58:18.889Z,36.47
2023-10-27T22:00:49.971Z,37.33
2023-10-27T22:03:19.506Z,38.97
2023-10-27T22:05:49.321Z,38.17
2023-10-27T22:08:19.032Z,37.80
2023-10-27T22:10:48.162Z,38.15
2023-10-27T22:13:16.738Z,37.53
2023-10-27T22:15:46.004Z,37.42
2023-10-27T22:18:16.093Z,37.92
2023-10-27T22:20:44.862Z,36.78
2023-10-27T22:23:13.009Z,38.13
2023-10-27T22:25:44.990Z,37.83
2023-10-27T22:28:16.751Z,37.30
2023-10-27T22:30:46.066Z,37.83
2023-10-27T22:33:14.709Z,37.78
2023-10-27T22:35:43.273Z,37.80
2023-10-27T22:38:12.311Z,38.83
2023-10-27T22:40:40.743Z,37.22
2023-10-27T22:43:10.817Z,37.42
2023-10-27T22:45:40.713Z,38.55
2023-10-27T22:48:09.608Z,37.53
2023-10-27T22:50:39.066Z,38.15
2023-10-27T22:53:08.943Z,37.55
2023-10-27T22:55:37.161Z,37.53
2023-10-27T22:58:05.924Z,37.92
2023-10-27T23:00:35.753Z,38.45
2023-10-27T23:03:05.062Z,38.97
2023-10-27T23:05:36.464Z,38.15
2023-10-27T23:08:07.090Z,38.08
2023-10-27T23:10:35.276Z,38.15
2023-10-27T23:13:06.548Z,38.53
2023-10-27T23:15:37.832Z,39.35
2023-10-27T23:18:06.520Z,38.90
2023-10-27T23:20:34.874Z,41.28
2023-10-27T23:23:03.429Z,39.08
2023-10-27T23:25:34.350Z,39.28
2023-10-27T23:28:02.715Z,39.63
2023-10-27T23:30:31.727Z,39.15
2023-10-27T23:33:03.301Z,38.45
2023-10-27T23:35:32.930Z,38.88
2023-10-27T23:38:01.213Z,39.60
2023-10-27T23:40:30.423Z,38.88
2023-10-27T23:42:58.712Z,39.15
2023-10-27T23:45:27.577Z,38.00
2023-10-27T23:47:55.999Z,38.45
2023-10-27T23:50:25.682Z,38.97
2023-10-27T23:52:53.938Z,38.53
2023-10-27T23:55:22.246Z,38.70
2023-10-27T23:57:50.386Z,39.30
